createdAt,value
2023-08-17T00:01:35.443Z,99.90
2023-08-17T00:04:20.695Z,99.90
2023-08-17T00:07:01.250Z,99.90
2023-08-17T00:09:48.527Z,99.90
2023-08-17T00:12:39.400Z,99.90
2023-08-17T00:15:22.654Z,99.90
2023-08-17T00:18:08.263Z,99.90
2023-08-17T00:20:49.580Z,99.90
2023-08-17T00:23:53.985Z,99.90
2023-08-17T00:26:43.766Z,99.90
2023-08-17T00:29:26.672Z,99.90
2023-08-17T00:32:05.547Z,99.90
2023-08-17T00:34:42.554Z,99.90
2023-08-17T00:37:24.779Z,99.90
2023-08-17T00:40:00.592Z,99.90
2023-08-17T00:42:50.479Z,99.90
2023-08-17T00:45:32.227Z,99.90
2023-08-17T00:48:17.274Z,99.90
2023-08-17T00:51:07.450Z,99.90
2023-08-17T00:53:54.418Z,99.90
2023-08-17T00:56:34.165Z,99.90
2023-08-17T00:59:23.098Z,99.90
2023-08-17T01:02:00.245Z,99.90
2023-08-17T01:04:47.861Z,99.90
2023-08-17T01:07:24.381Z,99.90
2023-08-17T01:10:11.528Z,99.90
2023-08-17T01:13:06.836Z,99.90
2023-08-17T01:15:56.436Z,99.90
2023-08-17T01:18:46.766Z,99.90
2023-08-17T01:21:28.220Z,99.90
2023-08-17T01:24:12.714Z,99.90
2023-08-17T01:26:49.626Z,99.90
2023-08-17T01:29:34.624Z,99.90
2023-08-17T01:32:28.731Z,99.90
2023-08-17T01:35:18.563Z,99.90
2023-08-17T01:38:08.964Z,99.90
2023-08-17T01:40:59.460Z,99.90
2023-08-17T01:43:41.488Z,99.90
2023-08-17T01:46:20.960Z,99.90
2023-08-17T01:49:02.446Z,99.90
2023-08-17T01:51:39.545Z,99.90
2023-08-17T01:54:19.401Z,99.90
2023-08-17T01:57:08.066Z,99.90
2023-08-17T01:59:55.892Z,99.90
2023-08-17T02:02:40.863Z,99.90
2023-08-17T02:05:20.548Z,99.90
2023-08-17T02:08:17.688Z,99.90
2023-08-17T02:11:02.099Z,99.90
2023-08-17T02:13:47.630Z,99.90
2023-08-17T02:16:24.204Z,99.90
2023-08-17T02:19:04.124Z,99.90
2023-08-17T02:21:42.890Z,99.90
2023-08-17T02:24:30.660Z,99.90
2023-08-17T02:27:17.474Z,99.90
2023-08-17T02:30:00.191Z,99.90
2023-08-17T02:32:37.565Z,99.90
2023-08-17T02:35:25.143Z,99.90
2023-08-17T02:38:01.296Z,99.90
2023-08-17T02:40:37.360Z,99.90
2023-08-17T02:43:36.694Z,99.90
2023-08-17T02:46:45.357Z,99.90
2023-08-17T02:49:32.137Z,99.90
2023-08-17T02:52:13.454Z,99.90
2023-08-17T02:55:03.298Z,99.90
2023-08-17T02:57:39.291Z,99.90
2023-08-17T03:00:20.576Z,99.90
2023-08-17T03:05:51.259Z,99.80
2023-08-17T03:08:32.495Z,99.80
2023-08-17T03:11:10.699Z,99.90
2023-08-17T03:13:57.007Z,99.90
2023-08-17T03:16:33.561Z,99.40
2023-08-17T03:19:15.382Z,99.20
2023-08-17T03:22:06.077Z,98.30
2023-08-17T03:24:44.949Z,97.90
2023-08-17T03:27:28.696Z,97.70
2023-08-17T03:30:22.522Z,97.50
2023-08-17T03:33:01.355Z,97.80
2023-08-17T03:35:41.197Z,97.10
2023-08-17T03:38:22.260Z,96.10
2023-08-17T03:41:09.666Z,96.20
2023-08-17T03:43:56.726Z,96.40
2023-08-17T03:46:43.228Z,96.40
2023-08-17T03:49:20.122Z,96.20
2023-08-17T03:52:13.273Z,95.80
2023-08-17T03:54:58.712Z,96.00
2023-08-17T03:57:39.612Z,95.70
2023-08-17T04:00:35.102Z,95.50
2023-08-17T04:03:18.030Z,96.30
2023-08-17T04:05:57.755Z,95.50
2023-08-17T04:08:41.298Z,95.00
2023-08-17T04:11:17.960Z,95.40
2023-08-17T04:14:04.286Z,95.50
2023-08-17T04:16:43.182Z,95.30
2023-08-17T04:19:33.563Z,95.70
2023-08-17T04:22:14.191Z,94.90
2023-08-17T04:24:58.856Z,94.10
2023-08-17T04:27:41.360Z,93.70
2023-08-17T04:30:23.267Z,94.20
2023-08-17T04:32:59.804Z,94.10
2023-08-17T04:35:42.001Z,95.20
2023-08-17T04:38:20.473Z,94.60
2023-08-17T04:41:00.093Z,94.90
2023-08-17T04:43:38.041Z,94.30
2023-08-17T04:49:13.609Z,94.60
2023-08-17T04:52:02.180Z,94.60
2023-08-17T04:54:49.589Z,93.60
2023-08-17T04:57:32.274Z,94.00
2023-08-17T05:03:09.794Z,94.20
2023-08-17T05:05:57.937Z,94.20
2023-08-17T05:08:39.609Z,94.30
2023-08-17T05:11:41.838Z,93.40
2023-08-17T05:14:38.983Z,92.30
2023-08-17T05:17:21.784Z,91.70
2023-08-17T05:20:13.014Z,92.90
2023-08-17T05:23:04.602Z,92.90
2023-08-17T05:25:51.682Z,93.40
2023-08-17T05:28:30.404Z,93.60
2023-08-17T05:31:22.973Z,93.00
2023-08-17T05:34:15.866Z,91.40
2023-08-17T05:37:05.210Z,90.70
2023-08-17T05:39:59.483Z,92.10
2023-08-17T05:42:35.510Z,92.50
2023-08-17T05:45:29.636Z,91.70
2023-08-17T05:48:48.565Z,90.90
2023-08-17T05:51:29.713Z,89.80
2023-08-17T05:54:06.440Z,91.10
2023-08-17T05:57:06.253Z,90.80
2023-08-17T06:00:21.675Z,91.20
2023-08-17T06:03:06.141Z,89.20
2023-08-17T06:06:09.947Z,90.00
2023-08-17T06:08:53.524Z,89.30
2023-08-17T06:11:39.053Z,85.90
2023-08-17T06:14:30.622Z,85.60
2023-08-17T06:17:10.981Z,86.30
2023-08-17T06:20:03.014Z,86.80
2023-08-17T06:23:00.836Z,86.90
2023-08-17T06:25:46.582Z,85.00
2023-08-17T06:31:16.473Z,84.90
2023-08-17T06:33:54.989Z,80.80
2023-08-17T06:36:56.131Z,82.10
2023-08-17T06:39:51.844Z,81.70
2023-08-17T06:42:31.100Z,83.50
2023-08-17T06:45:24.350Z,80.20
2023-08-17T06:48:21.461Z,82.60
2023-08-17T06:50:59.147Z,81.30
2023-08-17T06:53:41.456Z,80.50
2023-08-17T06:56:26.451Z,80.40
2023-08-17T06:59:03.008Z,80.90
2023-08-17T07:01:44.894Z,80.20
2023-08-17T07:04:26.971Z,79.90
2023-08-17T07:07:21.248Z,78.40
2023-08-17T07:10:03.082Z,78.50
2023-08-17T07:12:45.826Z,77.40
2023-08-17T07:15:36.596Z,77.50
2023-08-17T07:18:18.503Z,78.70
2023-08-17T07:23:57.496Z,78.30
2023-08-17T07:26:49.967Z,76.30
2023-08-17T07:29:49.022Z,75.70
2023-08-17T07:32:31.784Z,75.00
2023-08-17T07:35:13.214Z,75.50
2023-08-17T07:38:07.285Z,75.20
2023-08-17T07:41:03.686Z,76.40
2023-08-17T07:43:57.974Z,74.10
2023-08-17T07:50:00.737Z,74.30
2023-08-17T07:52:53.605Z,75.60
2023-08-17T07:55:43.585Z,75.40
2023-08-17T07:58:31.537Z,73.90
2023-08-17T08:01:14.261Z,74.70
2023-08-17T08:04:21.407Z,73.70
2023-08-17T08:07:01.728Z,73.10
2023-08-17T08:09:55.367Z,71.40
2023-08-17T08:12:40.576Z,70.80
2023-08-17T08:15:32.218Z,72.10
2023-08-17T08:18:20.040Z,74.40
2023-08-17T08:21:07.252Z,74.20
2023-08-17T08:23:47.716Z,71.20
2023-08-17T08:26:30.595Z,70.90
2023-08-17T08:29:07.231Z,72.00
2023-08-17T08:31:46.179Z,71.90
2023-08-17T08:34:30.088Z,70.70
2023-08-17T08:37:16.860Z,70.40
2023-08-17T08:40:04.852Z,70.10
2023-08-17T08:42:44.366Z,66.30
2023-08-17T08:45:20.200Z,69.10
2023-08-17T08:47:57.248Z,69.80
2023-08-17T08:50:48.664Z,66.40
2023-08-17T08:53:55.777Z,70.20
2023-08-17T08:56:34.582Z,71.00
2023-08-17T08:59:11.822Z,70.10
2023-08-17T09:01:55.267Z,69.50
2023-08-17T09:04:35.605Z,69.00
2023-08-17T09:07:15.690Z,68.60
2023-08-17T09:10:12.052Z,68.80
2023-08-17T09:12:51.896Z,68.70
2023-08-17T09:15:34.262Z,68.30
2023-08-17T09:18:16.407Z,68.90
2023-08-17T09:21:10.126Z,68.40
2023-08-17T09:24:18.203Z,67.20
2023-08-17T09:27:10.826Z,70.10
2023-08-17T09:30:13.410Z,69.80
2023-08-17T09:32:50.578Z,68.80
2023-08-17T09:35:28.075Z,66.70
2023-08-17T09:38:10.131Z,67.30
2023-08-17T09:40:52.032Z,67.80
2023-08-17T09:43:37.650Z,65.50
2023-08-17T09:46:19.537Z,66.90
2023-08-17T09:48:59.057Z,67.70
2023-08-17T09:51:43.215Z,68.50
2023-08-17T09:54:29.935Z,69.40
2023-08-17T09:57:22.590Z,68.70
2023-08-17T10:00:05.382Z,69.70
2023-08-17T10:02:47.972Z,69.20
2023-08-17T10:05:30.826Z,65.50
2023-08-17T10:08:09.784Z,67.30
2023-08-17T10:10:57.756Z,67.80
2023-08-17T10:13:45.789Z,66.60
2023-08-17T10:16:53.437Z,68.40
2023-08-17T10:19:58.781Z,68.60
2023-08-17T10:22:43.722Z,69.70
2023-08-17T10:25:20.810Z,67.90
2023-08-17T10:28:14.721Z,67.50
2023-08-17T10:30:51.015Z,68.00
2023-08-17T10:33:36.939Z,69.50
2023-08-17T10:36:34.044Z,69.40
2023-08-17T10:39:39.708Z,69.50
2023-08-17T10:42:22.417Z,69.40
2023-08-17T10:45:00.311Z,68.40
2023-08-17T10:47:41.632Z,67.60
2023-08-17T10:50:33.238Z,66.50
2023-08-17T10:53:16.284Z,66.80
2023-08-17T10:56:06.169Z,68.50
2023-08-17T10:58:55.809Z,68.30
2023-08-17T11:01:51.006Z,68.20
2023-08-17T11:04:34.288Z,68.70
2023-08-17T11:10:52.720Z,69.80
2023-08-17T11:13:32.939Z,69.40
2023-08-17T11:16:33.459Z,70.80
2023-08-17T11:19:15.909Z,71.80
2023-08-17T11:21:59.348Z,72.60
2023-08-17T11:24:45.718Z,72.10
2023-08-17T11:27:27.781Z,68.80
2023-08-17T11:30:20.756Z,69.60
2023-08-17T11:33:08.675Z,68.70
2023-08-17T11:35:52.437Z,69.20
2023-08-17T11:38:28.643Z,69.30
2023-08-17T11:41:22.289Z,68.80
2023-08-17T11:44:02.610Z,69.40
2023-08-17T11:50:19.937Z,70.80
2023-08-17T11:53:02.683Z,67.60
2023-08-17T11:55:40.832Z,69.70
2023-08-17T11:58:25.048Z,69.40
2023-08-17T12:01:06.235Z,69.60
2023-08-17T12:04:19.822Z,68.70
2023-08-17T12:06:58.616Z,69.20
2023-08-17T12:09:48.783Z,69.60
2023-08-17T12:12:34.540Z,69.80
2023-08-17T12:15:44.318Z,69.90
2023-08-17T12:18:26.840Z,69.10
2023-08-17T12:21:10.436Z,69.00
2023-08-17T12:26:44.440Z,69.20
2023-08-17T12:29:23.563Z,69.90
2023-08-17T12:32:26.384Z,70.20
2023-08-17T12:35:16.844Z,70.90
2023-08-17T12:37:54.197Z,71.00
2023-08-17T12:40:55.672Z,71.10
2023-08-17T12:43:41.362Z,70.80
2023-08-17T12:46:20.038Z,70.80
2023-08-17T12:49:22.235Z,71.00
2023-08-17T12:52:11.830Z,71.70
2023-08-17T12:54:52.986Z,71.40
2023-08-17T13:00:34.429Z,72.50
2023-08-17T13:03:15.977Z,71.80
2023-08-17T13:06:06.409Z,71.00
2023-08-17T13:08:42.158Z,70.10
2023-08-17T13:11:34.645Z,69.60
2023-08-17T13:14:11.882Z,68.50
2023-08-17T13:16:54.632Z,65.00
2023-08-17T13:19:34.018Z,63.90
2023-08-17T13:22:30.038Z,64.20
2023-08-17T13:27:56.595Z,65.80
2023-08-17T13:33:29.557Z,66.80
2023-08-17T13:36:33.754Z,67.50
2023-08-17T13:39:30.552Z,68.00
2023-08-17T13:42:13.047Z,68.10
2023-08-17T13:44:48.707Z,67.90
2023-08-17T13:47:38.392Z,68.10
2023-08-17T13:50:33.411Z,68.30
2023-08-17T13:53:16.629Z,69.40
2023-08-17T13:56:11.414Z,69.40
2023-08-17T13:58:50.859Z,69.30
2023-08-17T14:01:37.168Z,69.00
2023-08-17T14:04:22.729Z,69.10
2023-08-17T14:07:06.384Z,69.50
2023-08-17T14:09:57.898Z,69.30
2023-08-17T14:13:04.768Z,70.30
2023-08-17T14:15:48.713Z,70.80
2023-08-17T14:18:29.941Z,70.80
2023-08-17T14:21:07.558Z,70.60
2023-08-17T14:23:47.489Z,71.50
2023-08-17T14:26:35.176Z,71.40
2023-08-17T14:29:35.944Z,71.70
2023-08-17T14:32:18.183Z,71.80
2023-08-17T14:34:55.260Z,71.80
2023-08-17T14:37:56.959Z,71.60
2023-08-17T14:41:05.841Z,71.10
2023-08-17T14:43:43.515Z,70.50
2023-08-17T14:46:21.542Z,70.40
2023-08-17T14:49:06.306Z,70.10
2023-08-17T14:51:50.874Z,70.40
2023-08-17T14:57:23.259Z,71.60
2023-08-17T15:00:03.734Z,71.60
2023-08-17T15:02:46.881Z,71.90
2023-08-17T15:05:28.851Z,72.30
2023-08-17T15:08:11.089Z,71.60
2023-08-17T15:10:47.571Z,70.20
2023-08-17T15:13:25.335Z,68.60
2023-08-17T15:16:16.036Z,68.90
2023-08-17T15:19:08.660Z,69.00
2023-08-17T15:21:43.934Z,69.40
2023-08-17T15:24:30.642Z,69.10
2023-08-17T15:27:07.355Z,68.30
2023-08-17T15:30:02.561Z,68.20
2023-08-17T15:33:09.059Z,68.10
2023-08-17T15:35:51.163Z,68.30
2023-08-17T15:38:32.419Z,71.40
2023-08-17T15:41:10.546Z,72.90
2023-08-17T15:43:49.089Z,74.50
2023-08-17T15:46:31.407Z,75.00
2023-08-17T15:52:17.183Z,76.30
2023-08-17T15:54:54.450Z,74.30
2023-08-17T15:57:36.731Z,73.70
2023-08-17T16:00:35.621Z,77.80
2023-08-17T16:03:17.458Z,76.40
2023-08-17T16:05:57.780Z,76.10
2023-08-17T16:08:48.625Z,74.40
2023-08-17T16:14:18.971Z,79.30
2023-08-17T16:17:08.501Z,79.20
2023-08-17T16:19:46.964Z,80.70
2023-08-17T16:22:25.978Z,79.50
2023-08-17T16:25:12.216Z,77.60
2023-08-17T16:28:08.980Z,77.70
2023-08-17T16:30:48.774Z,78.80
2023-08-17T16:33:24.743Z,79.70
2023-08-17T16:36:04.746Z,79.60
2023-08-17T16:38:42.337Z,77.50
2023-08-17T16:44:15.852Z,76.30
2023-08-17T16:46:55.071Z,74.70
2023-08-17T16:49:30.953Z,74.60
2023-08-17T16:52:11.806Z,74.10
2023-08-17T16:54:50.206Z,73.20
2023-08-17T16:57:32.259Z,70.50
2023-08-17T17:00:12.532Z,72.10
2023-08-17T17:02:53.964Z,72.90
2023-08-17T17:05:32.101Z,71.60
2023-08-17T17:08:07.844Z,69.00
2023-08-17T17:11:02.037Z,65.80
2023-08-17T17:13:46.772Z,65.70
2023-08-17T17:16:24.782Z,64.10
2023-08-17T17:19:00.433Z,63.70
2023-08-17T17:21:37.023Z,62.00
2023-08-17T17:24:13.958Z,60.90
2023-08-17T17:26:54.104Z,59.70
2023-08-17T17:29:34.223Z,58.60
2023-08-17T17:32:09.524Z,57.50
2023-08-17T17:34:44.708Z,57.20
2023-08-17T17:37:26.953Z,56.40
2023-08-17T17:40:02.564Z,56.40
2023-08-17T17:42:39.426Z,54.50
2023-08-17T17:45:17.460Z,53.50
2023-08-17T17:47:56.471Z,52.50
2023-08-17T17:50:31.654Z,51.90
2023-08-17T17:53:11.065Z,51.40
2023-08-17T17:55:50.584Z,51.10
2023-08-17T17:58:27.502Z,50.60
2023-08-17T18:01:05.813Z,50.80
2023-08-17T18:03:43.504Z,50.70
2023-08-17T18:06:24.003Z,50.20
2023-08-17T18:09:02.355Z,50.40
2023-08-17T18:11:40.796Z,50.00
2023-08-17T18:14:20.604Z,49.60
2023-08-17T18:16:58.411Z,49.50
2023-08-17T18:19:35.696Z,49.80
2023-08-17T18:22:11.047Z,49.40
2023-08-17T18:25:02.049Z,49.60
2023-08-17T18:27:42.780Z,49.40
2023-08-17T18:30:18.139Z,48.80
2023-08-17T18:32:57.260Z,48.80
2023-08-17T18:35:32.745Z,48.80
2023-08-17T18:38:15.935Z,48.70
2023-08-17T18:40:54.269Z,49.70
2023-08-17T18:43:30.150Z,49.60
2023-08-17T18:46:05.314Z,49.40
2023-08-17T18:48:43.856Z,50.20
2023-08-17T18:51:19.217Z,50.80
2023-08-17T18:53:55.827Z,51.00
2023-08-17T18:56:30.684Z,50.40
2023-08-17T18:59:06.003Z,49.30
2023-08-17T19:01:41.180Z,49.60
2023-08-17T19:04:19.750Z,50.00
2023-08-17T19:06:56.170Z,50.30
2023-08-17T19:09:31.240Z,51.10
2023-08-17T19:12:06.380Z,50.90
2023-08-17T19:14:42.168Z,49.50
2023-08-17T19:17:17.156Z,49.40
2023-08-17T19:19:56.787Z,49.90
2023-08-17T19:22:32.104Z,50.20
2023-08-17T19:25:08.145Z,50.20
2023-08-17T19:27:43.047Z,50.10
2023-08-17T19:30:22.100Z,49.30
2023-08-17T19:33:13.646Z,50.10
2023-08-17T19:35:52.260Z,51.30
2023-08-17T19:38:33.498Z,51.40
2023-08-17T19:41:10.020Z,51.40
2023-08-17T19:43:45.468Z,50.50
2023-08-17T19:46:20.762Z,51.60
2023-08-17T19:48:56.494Z,51.40
2023-08-17T19:51:34.428Z,52.00
2023-08-17T19:54:10.048Z,52.60
2023-08-17T19:56:48.526Z,52.40
2023-08-17T19:59:24.879Z,51.50
2023-08-17T20:01:59.690Z,51.00
2023-08-17T20:04:35.574Z,51.60
2023-08-17T20:07:14.033Z,51.50
2023-08-17T20:09:49.622Z,51.80
2023-08-17T20:12:25.753Z,52.20
2023-08-17T20:15:00.737Z,52.50
2023-08-17T20:17:36.634Z,51.60
2023-08-17T20:20:18.404Z,52.10
2023-08-17T20:22:56.827Z,52.60
2023-08-17T20:25:31.914Z,52.50
2023-08-17T20:28:12.310Z,52.20
2023-08-17T20:30:50.730Z,52.70
2023-08-17T20:33:25.522Z,52.50
2023-08-17T20:36:01.827Z,51.80
2023-08-17T20:38:41.021Z,51.40
2023-08-17T20:41:16.236Z,51.90
2023-08-17T20:43:55.638Z,51.90
2023-08-17T20:46:34.527Z,51.60
2023-08-17T20:49:10.612Z,52.30
2023-08-17T20:51:45.618Z,51.50
2023-08-17T20:54:24.613Z,52.00
2023-08-17T20:56:59.487Z,52.90
2023-08-17T20:59:34.493Z,52.60
2023-08-17T21:02:15.063Z,52.90
2023-08-17T21:04:50.286Z,52.90
2023-08-17T21:07:27.604Z,53.00
2023-08-17T21:10:08.259Z,53.00
2023-08-17T21:12:44.120Z,52.80
2023-08-17T21:15:20.907Z,53.30
2023-08-17T21:17:56.449Z,54.20
2023-08-17T21:20:33.980Z,54.70
2023-08-17T21:23:09.619Z,54.40
2023-08-17T21:25:54.760Z,54.20
2023-08-17T21:28:30.060Z,54.10
2023-08-17T21:31:09.495Z,53.80
2023-08-17T21:33:45.065Z,53.50
2023-08-17T21:36:20.596Z,52.80
2023-08-17T21:38:55.394Z,53.40
2023-08-17T21:41:38.011Z,53.00
2023-08-17T21:44:13.725Z,52.50
2023-08-17T21:46:50.532Z,52.80
2023-08-17T21:49:25.948Z,53.50
2023-08-17T21:52:01.688Z,54.00
2023-08-17T21:54:37.150Z,54.70
2023-08-17T21:57:15.953Z,55.00
2023-08-17T21:59:53.408Z,54.70
2023-08-17T22:02:28.870Z,54.40
2023-08-17T22:05:10.160Z,53.40
2023-08-17T22:07:46.077Z,52.80
2023-08-17T22:10:25.394Z,52.10
2023-08-17T22:13:04.178Z,52.30
2023-08-17T22:15:41.489Z,52.90
2023-08-17T22:18:17.344Z,54.10
2023-08-17T22:20:52.857Z,55.00
2023-08-17T22:23:31.347Z,55.40
2023-08-17T22:26:07.214Z,55.70
2023-08-17T22:28:53.379Z,55.00
2023-08-17T22:31:32.974Z,54.20
2023-08-17T22:34:12.069Z,54.00
2023-08-17T22:36:58.429Z,53.70
2023-08-17T22:39:51.133Z,53.80
2023-08-17T22:42:30.907Z,54.20
2023-08-17T22:45:16.407Z,53.70
2023-08-17T22:47:55.953Z,54.50
2023-08-17T22:50:32.029Z,55.10
2023-08-17T22:53:10.648Z,55.00
2023-08-17T22:55:49.226Z,55.00
2023-08-17T22:58:25.835Z,54.80
2023-08-17T23:01:10.793Z,54.70
2023-08-17T23:03:59.658Z,54.70
2023-08-17T23:06:49.247Z,54.70
2023-08-17T23:09:28.514Z,54.50
2023-08-17T23:12:07.598Z,55.10
2023-08-17T23:15:01.072Z,55.50
2023-08-17T23:17:46.960Z,55.20
2023-08-17T23:20:39.257Z,55.60
2023-08-17T23:23:21.042Z,56.20
2023-08-17T23:25:56.647Z,56.70
2023-08-17T23:28:35.733Z,56.80
2023-08-17T23:31:13.150Z,57.10
2023-08-17T23:34:01.062Z,57.00
2023-08-17T23:36:48.562Z,57.20
2023-08-17T23:39:31.540Z,57.50
2023-08-17T23:42:08.347Z,57.70
2023-08-17T23:44:50.216Z,57.80
2023-08-17T23:47:34.096Z,56.60
2023-08-17T23:50:13.856Z,56.50
2023-08-17T23:52:57.866Z,57.70
2023-08-17T23:55:47.903Z,59.10
2023-08-17T23:58:26.984Z,58.60
